Terminal Aerodrome Forecast
Issued by NWS Portland, OR

Home | Current Version | Previous Version | Text Only | Print | Product List | Glossary On
Versions: 1 2 3 4 5 6 7 8 9 10 11 12 13 14 15 16 17 18 19 20 21 22
000
FTUS46 KPQR 221618 AAB
TAFEUG
TAF AMD
KEUG 221618Z 2216/2312 VRB02KT 2SM BR BKN003 OVC035
     FM221900 20006KT P6SM VCSH SCT035 BKN050 BKN100=

USA.gov is the U.S. government's official web portal to all federal, state and local government web resources and services.